SWA3871 KAUS-KLBB
Flight info
| Callsign | SWA3871 |
|---|---|
| Flight time | 0h 52m |
| Altitude | 34000 |
| Route | ELOEL3 ABI |
| Aircraft | B737/M-SDE2E3FGHIRWXY/LB1 |
Departure
| Time | 2026-04-16 13:20 |
|---|---|
| Airport | Austin Bergstrom International Airport (KAUS) |
Arrival
| Time | 2026-04-16 14:13 |
|---|---|
| Airport | Lubbock Preston Smith International Airport (KLBB) |
| Time | Latitude | Longitude | Altitude | Speed | Heading |
|---|---|---|---|---|---|
| 2026-04-16 13:01 | 30.20130 | -97.66721 | 511 ft | 0 kts | 8° |
| 2026-04-16 13:12 | 30.20117 | -97.66723 | 511 ft | 4 kts | 5° |
| 2026-04-16 13:12 | 30.20091 | -97.66723 | 510 ft | 4 kts | 350° |
| 2026-04-16 13:12 | 30.20067 | -97.66713 | 510 ft | 4 kts | 312° |
| 2026-04-16 13:13 | 30.20060 | -97.66697 | 510 ft | 1 kts | 272° |
| 2026-04-16 13:13 | 30.20060 | -97.66694 | 510 ft | 1 kts | 272° |
| 2026-04-16 13:14 | 30.20060 | -97.66701 | 510 ft | 5 kts | 271° |
| 2026-04-16 13:15 | 30.20066 | -97.66778 | 510 ft | 13 kts | 279° |
| 2026-04-16 13:15 | 30.20089 | -97.66879 | 511 ft | 13 kts | 289° |
| 2026-04-16 13:15 | 30.20093 | -97.66981 | 512 ft | 13 kts | 268° |
| 2026-04-16 13:15 | 30.20091 | -97.67084 | 512 ft | 13 kts | 269° |
| 2026-04-16 13:16 | 30.20090 | -97.67197 | 511 ft | 14 kts | 269° |
| 2026-04-16 13:16 | 30.20088 | -97.67295 | 511 ft | 7 kts | 268° |
| 2026-04-16 13:16 | 30.20117 | -97.67337 | 512 ft | 7 kts | 347° |
| 2026-04-16 13:16 | 30.20204 | -97.67341 | 514 ft | 20 kts | 358° |
| 2026-04-16 13:17 | 30.20345 | -97.67343 | 517 ft | 20 kts | 359° |
| 2026-04-16 13:17 | 30.20480 | -97.67348 | 521 ft | 19 kts | 358° |
| 2026-04-16 13:17 | 30.20612 | -97.67352 | 523 ft | 19 kts | 359° |
| 2026-04-16 13:17 | 30.20738 | -97.67378 | 526 ft | 19 kts | 344° |
| 2026-04-16 13:18 | 30.20877 | -97.67420 | 526 ft | 22 kts | 344° |
| 2026-04-16 13:18 | 30.21022 | -97.67465 | 530 ft | 21 kts | 345° |
| 2026-04-16 13:18 | 30.21162 | -97.67509 | 529 ft | 21 kts | 345° |
| 2026-04-16 13:18 | 30.21299 | -97.67549 | 530 ft | 20 kts | 343° |
| 2026-04-16 13:19 | 30.21351 | -97.67681 | 530 ft | 19 kts | 268° |
| 2026-04-16 13:19 | 30.21346 | -97.67835 | 529 ft | 19 kts | 269° |
| 2026-04-16 13:19 | 30.21345 | -97.67920 | 529 ft | 4 kts | 261° |
| 2026-04-16 13:19 | 30.21318 | -97.67936 | 529 ft | 6 kts | 187° |
| 2026-04-16 13:20 | 30.21187 | -97.67932 | 528 ft | 52 kts | 179° |
| 2026-04-16 13:20 | 30.20515 | -97.67915 | 521 ft | 138 kts | 179° |
| 2026-04-16 13:20 | 30.19367 | -97.67901 | 836 ft | 181 kts | 179° |
| 2026-04-16 13:20 | 30.18065 | -97.67995 | 1785 ft | 188 kts | 196° |
| 2026-04-16 13:21 | 30.16898 | -97.68537 | 3014 ft | 181 kts | 203° |
| 2026-04-16 13:21 | 30.15666 | -97.69158 | 3513 ft | 208 kts | 203° |
| 2026-04-16 13:21 | 30.14288 | -97.69916 | 3873 ft | 242 kts | 214° |
| 2026-04-16 13:21 | 30.13192 | -97.71512 | 4638 ft | 260 kts | 246° |
| 2026-04-16 13:22 | 30.12918 | -97.73563 | 5648 ft | 271 kts | 272° |
| 2026-04-16 13:22 | 30.13249 | -97.75747 | 6611 ft | 279 kts | 281° |
| 2026-04-16 13:22 | 30.13681 | -97.77935 | 7649 ft | 278 kts | 285° |
| 2026-04-16 13:22 | 30.14578 | -97.79890 | 8760 ft | 280 kts | 310° |
| 2026-04-16 13:23 | 30.16155 | -97.81211 | 9797 ft | 284 kts | 336° |
| 2026-04-16 13:23 | 30.18108 | -97.81715 | 10602 ft | 297 kts | 351° |
| 2026-04-16 13:23 | 30.20271 | -97.81933 | 10866 ft | 326 kts | 353° |
| 2026-04-16 13:23 | 30.22635 | -97.82123 | 11071 ft | 354 kts | 354° |
| 2026-04-16 13:24 | 30.25185 | -97.82311 | 11364 ft | 374 kts | 354° |
| 2026-04-16 13:24 | 30.27815 | -97.82497 | 12048 ft | 381 kts | 354° |
| 2026-04-16 13:24 | 30.30436 | -97.82681 | 12862 ft | 384 kts | 353° |
| 2026-04-16 13:24 | 30.33115 | -97.82873 | 13662 ft | 388 kts | 353° |
| 2026-04-16 13:25 | 30.35819 | -97.83070 | 14336 ft | 393 kts | 352° |
| 2026-04-16 13:25 | 30.38571 | -97.83274 | 14963 ft | 399 kts | 352° |
| 2026-04-16 13:25 | 30.41362 | -97.83482 | 15574 ft | 404 kts | 352° |
| 2026-04-16 13:25 | 30.44190 | -97.83694 | 16190 ft | 410 kts | 352° |
| 2026-04-16 13:26 | 30.47048 | -97.83908 | 16808 ft | 415 kts | 351° |
| 2026-04-16 13:26 | 30.49949 | -97.84126 | 17419 ft | 420 kts | 351° |
| 2026-04-16 13:26 | 30.52879 | -97.84346 | 17998 ft | 425 kts | 351° |
| 2026-04-16 13:26 | 30.55860 | -97.84569 | 18535 ft | 430 kts | 351° |
| 2026-04-16 13:27 | 30.58864 | -97.84794 | 19054 ft | 434 kts | 351° |
| 2026-04-16 13:27 | 30.61888 | -97.85020 | 19590 ft | 437 kts | 351° |
| 2026-04-16 13:27 | 30.64935 | -97.85247 | 20125 ft | 440 kts | 351° |
| 2026-04-16 13:27 | 30.67959 | -97.85474 | 20643 ft | 443 kts | 351° |
| 2026-04-16 13:28 | 30.71051 | -97.85707 | 21143 ft | 446 kts | 350° |
| 2026-04-16 13:28 | 30.74139 | -97.86045 | 21626 ft | 446 kts | 345° |
| 2026-04-16 13:28 | 30.77150 | -97.86912 | 22088 ft | 443 kts | 336° |
| 2026-04-16 13:28 | 30.80079 | -97.88052 | 22592 ft | 445 kts | 334° |
| 2026-04-16 13:29 | 30.83010 | -97.89221 | 23082 ft | 448 kts | 335° |
| 2026-04-16 13:29 | 30.85986 | -97.90369 | 23527 ft | 452 kts | 335° |
| 2026-04-16 13:29 | 30.88988 | -97.91495 | 23905 ft | 455 kts | 335° |
| 2026-04-16 13:29 | 30.91965 | -97.92757 | 24302 ft | 451 kts | 329° |
| 2026-04-16 13:30 | 30.94778 | -97.94354 | 24753 ft | 449 kts | 326° |
| 2026-04-16 13:30 | 30.97544 | -97.96039 | 25182 ft | 449 kts | 325° |
| 2026-04-16 13:30 | 31.00313 | -97.97740 | 25627 ft | 451 kts | 325° |
| 2026-04-16 13:30 | 31.03102 | -97.99430 | 26064 ft | 452 kts | 325° |
| 2026-04-16 13:31 | 31.05871 | -98.01081 | 26415 ft | 454 kts | 325° |
| 2026-04-16 13:31 | 31.08704 | -98.02754 | 26759 ft | 457 kts | 325° |
| 2026-04-16 13:31 | 31.11552 | -98.04431 | 27117 ft | 459 kts | 325° |
| 2026-04-16 13:31 | 31.14397 | -98.06123 | 27467 ft | 458 kts | 323° |
| 2026-04-16 13:32 | 31.17051 | -98.08138 | 27801 ft | 451 kts | 315° |
| 2026-04-16 13:32 | 31.19390 | -98.10523 | 28145 ft | 443 kts | 306° |
| 2026-04-16 13:32 | 31.21421 | -98.13201 | 28620 ft | 438 kts | 304° |
| 2026-04-16 13:32 | 31.23404 | -98.15887 | 29215 ft | 433 kts | 303° |
| 2026-04-16 13:33 | 31.25354 | -98.18534 | 29811 ft | 430 kts | 303° |
| 2026-04-16 13:33 | 31.27312 | -98.21186 | 30346 ft | 427 kts | 303° |
| 2026-04-16 13:33 | 31.29248 | -98.23798 | 30872 ft | 424 kts | 303° |
| 2026-04-16 13:33 | 31.31180 | -98.26396 | 31385 ft | 421 kts | 303° |
| 2026-04-16 13:34 | 31.33073 | -98.28938 | 31856 ft | 418 kts | 303° |
| 2026-04-16 13:34 | 31.34980 | -98.31496 | 32299 ft | 416 kts | 302° |
| 2026-04-16 13:34 | 31.36880 | -98.34046 | 32740 ft | 414 kts | 302° |
| 2026-04-16 13:34 | 31.38777 | -98.36593 | 33104 ft | 414 kts | 302° |
| 2026-04-16 13:35 | 31.40673 | -98.39141 | 33470 ft | 414 kts | 302° |
| 2026-04-16 13:35 | 31.42564 | -98.41683 | 33874 ft | 412 kts | 302° |
| 2026-04-16 13:35 | 31.44452 | -98.44224 | 33978 ft | 416 kts | 302° |
| 2026-04-16 13:36 | 31.48225 | -98.49307 | 33995 ft | 414 kts | 302° |
| 2026-04-16 13:36 | 31.51985 | -98.54368 | 34031 ft | 410 kts | 302° |
| 2026-04-16 13:37 | 31.55732 | -98.59427 | 34006 ft | 410 kts | 302° |
| 2026-04-16 13:37 | 31.59472 | -98.64483 | 33995 ft | 409 kts | 302° |
| 2026-04-16 13:38 | 31.63174 | -98.69493 | 33992 ft | 409 kts | 302° |
| 2026-04-16 13:38 | 31.66894 | -98.74536 | 34021 ft | 409 kts | 302° |
| 2026-04-16 13:39 | 31.70622 | -98.79594 | 34034 ft | 409 kts | 302° |
| 2026-04-16 13:39 | 31.74354 | -98.84666 | 34054 ft | 411 kts | 302° |
| 2026-04-16 13:40 | 31.78097 | -98.89760 | 34083 ft | 412 kts | 302° |
| 2026-04-16 13:40 | 31.81856 | -98.94881 | 34059 ft | 413 kts | 302° |
| 2026-04-16 13:41 | 31.85584 | -98.99964 | 34058 ft | 413 kts | 302° |
| 2026-04-16 13:41 | 31.89330 | -99.05079 | 34040 ft | 412 kts | 302° |
| 2026-04-16 13:42 | 31.93070 | -99.10195 | 34016 ft | 411 kts | 302° |
| 2026-04-16 13:42 | 31.96809 | -99.15316 | 34014 ft | 411 kts | 302° |
| 2026-04-16 13:43 | 32.00512 | -99.20397 | 33996 ft | 411 kts | 302° |
| 2026-04-16 13:43 | 32.04238 | -99.25516 | 33986 ft | 411 kts | 302° |
| 2026-04-16 13:44 | 32.07956 | -99.30629 | 33974 ft | 410 kts | 302° |
| 2026-04-16 13:44 | 32.11659 | -99.35727 | 33971 ft | 408 kts | 302° |
| 2026-04-16 13:45 | 32.15323 | -99.40781 | 33986 ft | 407 kts | 301° |
| 2026-04-16 13:45 | 32.19001 | -99.45859 | 33979 ft | 405 kts | 301° |
| 2026-04-16 13:46 | 32.22666 | -99.50929 | 33972 ft | 405 kts | 302° |
| 2026-04-16 13:46 | 32.26293 | -99.55952 | 34003 ft | 404 kts | 302° |
| 2026-04-16 13:47 | 32.29948 | -99.61021 | 33969 ft | 405 kts | 302° |
| 2026-04-16 13:47 | 32.33610 | -99.66107 | 33962 ft | 405 kts | 302° |
| 2026-04-16 13:48 | 32.36640 | -99.70319 | 34035 ft | 404 kts | 302° |
| 2026-04-16 13:48 | 32.40293 | -99.75404 | 34036 ft | 404 kts | 302° |
| 2026-04-16 13:49 | 32.43910 | -99.80447 | 34011 ft | 403 kts | 302° |
| 2026-04-16 13:49 | 32.47541 | -99.85515 | 34006 ft | 403 kts | 302° |
| 2026-04-16 13:50 | 32.51323 | -99.90437 | 34039 ft | 407 kts | 305° |
| 2026-04-16 13:50 | 32.55273 | -99.95292 | 33999 ft | 407 kts | 305° |
| 2026-04-16 13:51 | 32.59182 | -100.00101 | 33970 ft | 407 kts | 305° |
| 2026-04-16 13:51 | 32.63094 | -100.04955 | 33958 ft | 406 kts | 305° |
| 2026-04-16 13:52 | 32.66987 | -100.09810 | 33940 ft | 406 kts | 305° |
| 2026-04-16 13:52 | 32.70888 | -100.14687 | 33930 ft | 406 kts | 305° |
| 2026-04-16 13:53 | 32.74747 | -100.19517 | 33970 ft | 406 kts | 305° |
| 2026-04-16 13:53 | 32.78639 | -100.24398 | 33933 ft | 406 kts | 305° |
| 2026-04-16 13:54 | 32.82523 | -100.29271 | 33929 ft | 406 kts | 305° |
| 2026-04-16 13:54 | 32.86402 | -100.34146 | 33923 ft | 405 kts | 305° |
| 2026-04-16 13:55 | 32.90262 | -100.39003 | 33923 ft | 405 kts | 305° |
| 2026-04-16 13:55 | 32.94131 | -100.43878 | 33927 ft | 405 kts | 305° |
| 2026-04-16 13:55 | 32.96063 | -100.46316 | 33603 ft | 410 kts | 305° |
| 2026-04-16 13:56 | 32.98036 | -100.48814 | 32894 ft | 412 kts | 306° |
| 2026-04-16 13:56 | 33.00003 | -100.51299 | 32057 ft | 412 kts | 306° |
| 2026-04-16 13:56 | 33.01968 | -100.53780 | 31182 ft | 412 kts | 306° |
| 2026-04-16 13:56 | 33.03941 | -100.56277 | 30290 ft | 415 kts | 306° |
| 2026-04-16 13:57 | 33.05927 | -100.58792 | 29267 ft | 417 kts | 307° |
| 2026-04-16 13:57 | 33.07882 | -100.61266 | 28564 ft | 411 kts | 307° |
| 2026-04-16 13:57 | 33.09840 | -100.63742 | 27847 ft | 407 kts | 307° |
| 2026-04-16 13:58 | 33.13682 | -100.68611 | 26468 ft | 399 kts | 308° |
| 2026-04-16 13:58 | 33.15579 | -100.71020 | 25800 ft | 396 kts | 308° |
| 2026-04-16 13:58 | 33.17442 | -100.73389 | 25148 ft | 395 kts | 308° |
| 2026-04-16 13:58 | 33.19320 | -100.75782 | 24480 ft | 397 kts | 309° |
| 2026-04-16 13:59 | 33.21218 | -100.78201 | 23793 ft | 401 kts | 309° |
| 2026-04-16 13:59 | 33.23150 | -100.80668 | 23004 ft | 409 kts | 309° |
| 2026-04-16 13:59 | 33.25101 | -100.83155 | 22239 ft | 407 kts | 309° |
| 2026-04-16 13:59 | 33.27007 | -100.85582 | 21521 ft | 402 kts | 309° |
| 2026-04-16 14:00 | 33.28915 | -100.88014 | 20826 ft | 398 kts | 309° |
| 2026-04-16 14:00 | 33.30796 | -100.90412 | 20144 ft | 393 kts | 309° |
| 2026-04-16 14:00 | 33.32652 | -100.92783 | 19474 ft | 388 kts | 309° |
| 2026-04-16 14:00 | 33.34491 | -100.95134 | 18810 ft | 384 kts | 309° |
| 2026-04-16 14:01 | 33.36310 | -100.97462 | 18127 ft | 381 kts | 309° |
| 2026-04-16 14:01 | 33.38110 | -100.99768 | 17367 ft | 377 kts | 309° |
| 2026-04-16 14:01 | 33.39892 | -101.02050 | 16669 ft | 373 kts | 308° |
| 2026-04-16 14:01 | 33.41654 | -101.04309 | 15973 ft | 369 kts | 308° |
| 2026-04-16 14:02 | 33.43397 | -101.06545 | 15298 ft | 365 kts | 308° |
| 2026-04-16 14:02 | 33.45101 | -101.08732 | 14661 ft | 361 kts | 308° |
| 2026-04-16 14:02 | 33.46806 | -101.10923 | 14042 ft | 357 kts | 308° |
| 2026-04-16 14:02 | 33.48493 | -101.13092 | 13367 ft | 353 kts | 308° |
| 2026-04-16 14:03 | 33.50160 | -101.15239 | 12684 ft | 350 kts | 308° |
| 2026-04-16 14:03 | 33.51814 | -101.17368 | 12042 ft | 346 kts | 308° |
| 2026-04-16 14:03 | 33.53431 | -101.19453 | 11411 ft | 343 kts | 309° |
| 2026-04-16 14:03 | 33.55057 | -101.21548 | 10803 ft | 341 kts | 309° |
| 2026-04-16 14:04 | 33.56643 | -101.23592 | 10554 ft | 328 kts | 309° |
| 2026-04-16 14:04 | 33.58151 | -101.25532 | 10356 ft | 307 kts | 309° |
| 2026-04-16 14:04 | 33.59567 | -101.27357 | 10214 ft | 289 kts | 309° |
| 2026-04-16 14:04 | 33.60893 | -101.29071 | 10032 ft | 281 kts | 309° |
| 2026-04-16 14:05 | 33.62215 | -101.30785 | 9778 ft | 278 kts | 309° |
| 2026-04-16 14:05 | 33.63532 | -101.32490 | 9333 ft | 274 kts | 309° |
| 2026-04-16 14:05 | 33.64812 | -101.34145 | 8918 ft | 266 kts | 309° |
| 2026-04-16 14:05 | 33.66002 | -101.35822 | 8510 ft | 262 kts | 296° |
| 2026-04-16 14:06 | 33.66454 | -101.37888 | 8131 ft | 256 kts | 271° |
| 2026-04-16 14:06 | 33.66491 | -101.40023 | 7740 ft | 252 kts | 269° |
| 2026-04-16 14:06 | 33.66489 | -101.42114 | 7400 ft | 250 kts | 269° |
| 2026-04-16 14:06 | 33.66474 | -101.44157 | 7108 ft | 244 kts | 269° |
| 2026-04-16 14:07 | 33.66457 | -101.46172 | 6778 ft | 238 kts | 269° |
| 2026-04-16 14:07 | 33.66440 | -101.48134 | 6444 ft | 232 kts | 269° |
| 2026-04-16 14:07 | 33.66425 | -101.50058 | 6098 ft | 228 kts | 269° |
| 2026-04-16 14:07 | 33.66411 | -101.51944 | 5752 ft | 223 kts | 269° |
| 2026-04-16 14:08 | 33.66396 | -101.53784 | 5484 ft | 215 kts | 268° |
| 2026-04-16 14:08 | 33.66382 | -101.55534 | 5330 ft | 204 kts | 268° |
| 2026-04-16 14:08 | 33.66371 | -101.57177 | 5173 ft | 194 kts | 268° |
| 2026-04-16 14:08 | 33.66359 | -101.58760 | 5024 ft | 186 kts | 268° |
| 2026-04-16 14:09 | 33.66349 | -101.60338 | 4981 ft | 190 kts | 268° |
| 2026-04-16 14:09 | 33.66338 | -101.61922 | 4945 ft | 187 kts | 268° |
| 2026-04-16 14:09 | 33.66328 | -101.63469 | 4946 ft | 184 kts | 268° |
| 2026-04-16 14:09 | 33.66318 | -101.65011 | 4964 ft | 186 kts | 268° |
| 2026-04-16 14:10 | 33.66309 | -101.66559 | 4954 ft | 184 kts | 269° |
| 2026-04-16 14:10 | 33.66302 | -101.67619 | 4973 ft | 184 kts | 269° |
| 2026-04-16 14:10 | 33.66295 | -101.68976 | 4962 ft | 184 kts | 268° |
| 2026-04-16 14:10 | 33.66284 | -101.70543 | 4753 ft | 189 kts | 268° |
| 2026-04-16 14:11 | 33.66276 | -101.72073 | 4514 ft | 177 kts | 268° |
| 2026-04-16 14:11 | 33.66268 | -101.73504 | 4283 ft | 167 kts | 267° |
| 2026-04-16 14:11 | 33.66260 | -101.74861 | 4135 ft | 156 kts | 268° |
| 2026-04-16 14:11 | 33.66254 | -101.76092 | 3865 ft | 142 kts | 268° |
| 2026-04-16 14:12 | 33.66247 | -101.77260 | 3687 ft | 139 kts | 269° |
| 2026-04-16 14:12 | 33.66239 | -101.78416 | 3480 ft | 137 kts | 269° |
| 2026-04-16 14:12 | 33.66236 | -101.79553 | 3335 ft | 135 kts | 269° |
| 2026-04-16 14:12 | 33.66230 | -101.80622 | 3262 ft | 112 kts | 270° |
| 2026-04-16 14:13 | 33.66229 | -101.81292 | 3263 ft | 49 kts | 269° |
| 2026-04-16 14:13 | 33.66229 | -101.81511 | 3266 ft | 20 kts | 268° |
| 2026-04-16 14:13 | 33.66226 | -101.81728 | 3269 ft | 31 kts | 269° |
| 2026-04-16 14:13 | 33.66224 | -101.82015 | 3270 ft | 36 kts | 269° |
| 2026-04-16 14:14 | 33.66209 | -101.82256 | 3266 ft | 20 kts | 229° |
| 2026-04-16 14:14 | 33.66076 | -101.82268 | 3266 ft | 18 kts | 178° |
| 2026-04-16 14:14 | 33.66032 | -101.82151 | 3270 ft | 1 kts | 88° |
| 2026-04-16 14:14 | 33.66025 | -101.82146 | 3269 ft | 0 kts | 153° |
| 2026-04-16 14:15 | 33.66032 | -101.82210 | 3266 ft | 13 kts | 271° |
| 2026-04-16 14:15 | 33.66027 | -101.82347 | 3266 ft | 21 kts | 244° |
| 2026-04-16 14:15 | 33.65868 | -101.82350 | 3264 ft | 31 kts | 155° |
| 2026-04-16 14:15 | 33.65767 | -101.82259 | 3265 ft | 3 kts | 163° |
| 2026-04-16 14:16 | 33.65744 | -101.82258 | 3265 ft | 4 kts | 180° |
| 2026-04-16 14:16 | 33.65726 | -101.82259 | 3263 ft | 0 kts | 181° |